Home   Weather   Cinisello Balsamo   Past weeks
Flag for Italy

Past Weather in Cinisello Balsamo, Italy — Yesterday and Last 2 Weeks

Currently: 90 °F. Passing clouds. (Weather station: Milan / Linate, Italy). See more current weather

Past Weather in Cinisello Balsamo — Graph

°F

Cinisello Balsamo Temperature Yesterday

Maximum temperature yesterday: 88 °F (at 4:50 pm)
Minimum temperature yesterday: 63 °F (at 3:50 am)
Average temperature yesterday: 76 °F

High & Low Weather Summary for the Past Weeks

 TemperatureHumidityPressure
High95 °F (Jun 13, 3:50 pm)100% (Jun 7, 2:50 am)30.24 "Hg (Jun 7, 2:50 am)
Low59 °F (May 30, 5:20 am)27% (Jun 4, 5:20 pm)29.92 "Hg (Jun 6, 5:50 pm)
Average72 °F60%30.07 "Hg
* Reported May 29 7:20 pm — Jun 13 7:20 pm, Cinisello Balsamo. Weather by CustomWeather, © 2021

Note: Actual official high and low records may vary slightly from our data, if they occured in-between our weather recording intervals... More about our weather records

Cinisello Balsamo Weather History for the Previous 24 Hours

Scroll right to see more
 ConditionsComfort  
Time TempWeatherWind HumidityBarometerVisibility
7:20 pm
Sun, Jun 13
91 °FPassing clouds.6 mph32%29.95 "HgN/A
6:50 pm91 °FPassing clouds.7 mph32%29.95 "HgN/A
6:20 pm93 °FPassing clouds.7 mph32%29.95 "HgN/A
5:50 pm93 °FPassing clouds.9 mph30%29.95 "HgN/A
5:20 pm93 °FPassing clouds.8 mph30%29.95 "HgN/A
4:50 pm93 °FPassing clouds.8 mph30%29.95 "HgN/A
4:20 pm93 °FPassing clouds.9 mph30%29.95 "HgN/A
3:50 pm95 °FSunny.8 mph30%29.95 "Hg10 mi
3:20 pm93 °FPassing clouds.6 mph32%29.98 "HgN/A
2:50 pm93 °FPassing clouds.7 mph30%29.98 "HgN/A
2:20 pm93 °FPassing clouds.7 mph32%29.98 "HgN/A
1:50 pm91 °FPassing clouds.7 mph34%30.01 "HgN/A
1:20 pm90 °FPassing clouds.7 mph38%30.01 "HgN/A
12:50 pm90 °FPassing clouds.6 mph38%30.01 "HgN/A
12:20 pm88 °FPassing clouds.5 mph38%30.01 "HgN/A
11:50 am86 °FPassing clouds.5 mph40%30.01 "HgN/A
11:20 am86 °FPassing clouds.5 mph46%30.04 "HgN/A
10:50 am82 °FPassing clouds.5 mph45%30.04 "HgN/A
10:20 am82 °FPassing clouds.5 mph48%30.04 "HgN/A
9:50 am81 °FPassing clouds.5 mph54%30.04 "HgN/A
9:20 am79 °FPassing clouds.5 mph58%30.04 "HgN/A
8:50 am77 °FPassing clouds.5 mph61%30.04 "HgN/A
8:20 am75 °FPassing clouds.3 mph65%30.04 "HgN/A
7:50 am73 °FPassing clouds.5 mph69%30.01 "HgN/A
7:20 am72 °FPassing clouds.6 mph73%30.01 "HgN/A
6:50 am70 °FPassing clouds.5 mph78%30.01 "HgN/A
6:20 am68 °FPassing clouds.5 mph83%30.01 "HgN/A
5:50 am68 °FPassing clouds.5 mph83%30.01 "HgN/A
5:20 am68 °FClear.7 mph78%30.01 "Hg10 mi
4:50 am70 °FPassing clouds.7 mph73%30.01 "HgN/A
4:20 am70 °FPassing clouds.5 mph73%30.01 "HgN/A
3:50 am72 °FPassing clouds.3 mph65%30.01 "HgN/A
3:20 am72 °FClear.6 mph65%30.01 "Hg10 mi
2:50 am72 °FPassing clouds.5 mph65%30.04 "HgN/A
2:20 am73 °FClear.7 mph57%30.04 "Hg10 mi
1:50 am73 °FPassing clouds.5 mph57%30.04 "HgN/A
1:20 am72 °FPassing clouds.5 mph65%30.04 "HgN/A
12:50 am72 °FClear.2 mph65%30.04 "Hg10 mi
12:20 am73 °FClear.1 mph61%30.04 "Hg10 mi
11:50 pm
Sat, Jun 12
75 °FPassing clouds.3 mph57%30.04 "HgN/A
11:20 pm75 °FClear.2 mph65%30.04 "Hg10 mi
10:50 pm77 °FClear.5 mph61%30.04 "Hg10 mi
10:20 pm79 °FPassing clouds.3 mph58%30.01 "HgN/A
9:50 pm79 °FClear.3 mph54%30.01 "Hg10 mi
9:20 pm82 °FPassing clouds.5 mph48%30.01 "HgN/A
8:50 pm82 °FSunny.7 mph48%30.01 "Hg10 mi
8:20 pm84 °FPassing clouds.5 mph43%30.01 "HgN/A
Weather by CustomWeather, © 2021

See weather overview